sensor_id;sensor_type;location;lat;lon;timestamp;P1;durP1;ratioP1;P2;durP2;ratioP2
49223;SDS011;35050;51.316;5.994;2022-12-11T00:01:09;40.35;;;18.02;;
49223;SDS011;35050;51.316;5.994;2022-12-11T00:03:36;41.78;;;19.35;;
49223;SDS011;35050;51.316;5.994;2022-12-11T00:06:04;44.95;;;20.50;;
49223;SDS011;35050;51.316;5.994;2022-12-11T00:08:33;37.88;;;18.40;;
49223;SDS011;35050;51.316;5.994;2022-12-11T00:10:59;41.42;;;18.35;;
49223;SDS011;35050;51.316;5.994;2022-12-11T00:13:25;40.50;;;19.00;;
49223;SDS011;35050;51.316;5.994;2022-12-11T00:15:51;41.20;;;20.92;;
49223;SDS011;35050;51.316;5.994;2022-12-11T00:18:16;41.53;;;20.08;;
49223;SDS011;35050;51.316;5.994;2022-12-11T00:20:42;41.03;;;20.88;;
49223;SDS011;35050;51.316;5.994;2022-12-11T00:23:08;37.65;;;19.33;;
49223;SDS011;35050;51.316;5.994;2022-12-11T00:25:34;37.50;;;19.15;;
49223;SDS011;35050;51.316;5.994;2022-12-11T00:28:09;36.30;;;19.55;;
49223;SDS011;35050;51.316;5.994;2022-12-11T00:30:39;39.03;;;19.00;;
49223;SDS011;35050;51.316;5.994;2022-12-11T00:33:06;44.70;;;21.45;;
49223;SDS011;35050;51.316;5.994;2022-12-11T00:35:32;42.72;;;21.27;;
49223;SDS011;35050;51.316;5.994;2022-12-11T00:38:01;50.00;;;24.17;;
49223;SDS011;35050;51.316;5.994;2022-12-11T00:40:27;44.97;;;22.25;;
49223;SDS011;35050;51.316;5.994;2022-12-11T00:42:52;54.83;;;25.58;;
49223;SDS011;35050;51.316;5.994;2022-12-11T00:45:18;51.38;;;25.20;;
49223;SDS011;35050;51.316;5.994;2022-12-11T00:47:44;48.88;;;23.27;;
49223;SDS011;35050;51.316;5.994;2022-12-11T00:50:09;44.08;;;22.05;;
49223;SDS011;35050;51.316;5.994;2022-12-11T00:52:36;46.60;;;23.40;;
49223;SDS011;35050;51.316;5.994;2022-12-11T00:55:02;46.00;;;22.75;;
49223;SDS011;35050;51.316;5.994;2022-12-11T00:57:28;43.47;;;21.33;;
49223;SDS011;35050;51.316;5.994;2022-12-11T00:59:54;37.45;;;20.38;;
49223;SDS011;35050;51.316;5.994;2022-12-11T01:02:20;47.17;;;23.38;;
49223;SDS011;35050;51.316;5.994;2022-12-11T01:04:45;47.20;;;22.92;;
49223;SDS011;35050;51.316;5.994;2022-12-11T01:07:11;46.33;;;22.40;;
49223;SDS011;35050;51.316;5.994;2022-12-11T01:09:36;42.47;;;22.33;;
49223;SDS011;35050;51.316;5.994;2022-12-11T01:12:20;48.03;;;23.25;;
49223;SDS011;35050;51.316;5.994;2022-12-11T01:14:46;42.88;;;21.25;;
49223;SDS011;35050;51.316;5.994;2022-12-11T01:17:12;40.75;;;20.63;;
49223;SDS011;35050;51.316;5.994;2022-12-11T01:19:37;40.22;;;20.55;;
49223;SDS011;35050;51.316;5.994;2022-12-11T01:22:03;40.08;;;18.92;;
49223;SDS011;35050;51.316;5.994;2022-12-11T01:24:29;36.10;;;19.10;;
49223;SDS011;35050;51.316;5.994;2022-12-11T01:26:54;42.47;;;19.63;;
49223;SDS011;35050;51.316;5.994;2022-12-11T01:29:20;40.63;;;18.77;;
49223;SDS011;35050;51.316;5.994;2022-12-11T01:31:46;39.05;;;17.85;;
49223;SDS011;35050;51.316;5.994;2022-12-11T01:34:11;31.77;;;17.13;;
49223;SDS011;35050;51.316;5.994;2022-12-11T01:36:37;40.20;;;18.90;;
49223;SDS011;35050;51.316;5.994;2022-12-11T01:39:02;38.60;;;18.20;;
49223;SDS011;35050;51.316;5.994;2022-12-11T01:41:28;34.90;;;18.55;;
49223;SDS011;35050;51.316;5.994;2022-12-11T01:43:54;38.78;;;18.55;;
49223;SDS011;35050;51.316;5.994;2022-12-11T01:46:20;40.25;;;20.80;;
49223;SDS011;35050;51.316;5.994;2022-12-11T01:48:46;44.22;;;20.83;;
49223;SDS011;35050;51.316;5.994;2022-12-11T01:51:12;49.03;;;22.80;;
49223;SDS011;35050;51.316;5.994;2022-12-11T01:53:39;51.13;;;24.88;;
49223;SDS011;35050;51.316;5.994;2022-12-11T01:56:09;51.42;;;24.63;;
49223;SDS011;35050;51.316;5.994;2022-12-11T01:58:43;53.45;;;25.02;;
49223;SDS011;35050;51.316;5.994;2022-12-11T02:01:13;49.45;;;23.88;;
49223;SDS011;35050;51.316;5.994;2022-12-11T02:03:49;46.75;;;21.67;;
49223;SDS011;35050;51.316;5.994;2022-12-11T02:06:32;49.53;;;23.63;;
49223;SDS011;35050;51.316;5.994;2022-12-11T02:09:06;45.47;;;21.65;;
49223;SDS011;35050;51.316;5.994;2022-12-11T02:11:44;38.70;;;20.25;;
49223;SDS011;35050;51.316;5.994;2022-12-11T02:14:13;46.83;;;23.08;;
49223;SDS011;35050;51.316;5.994;2022-12-11T02:17:21;44.95;;;22.35;;
49223;SDS011;35050;51.316;5.994;2022-12-11T02:25:31;40.90;;;19.48;;
49223;SDS011;35050;51.316;5.994;2022-12-11T02:28:18;35.80;;;18.48;;
49223;SDS011;35050;51.316;5.994;2022-12-11T02:31:12;36.90;;;17.55;;
49223;SDS011;35050;51.316;5.994;2022-12-11T02:34:11;36.45;;;17.42;;
49223;SDS011;35050;51.316;5.994;2022-12-11T02:36:49;33.00;;;17.35;;
49223;SDS011;35050;51.316;5.994;2022-12-11T02:39:18;31.45;;;16.38;;
49223;SDS011;35050;51.316;5.994;2022-12-11T02:41:48;27.63;;;14.55;;
49223;SDS011;35050;51.316;5.994;2022-12-11T02:44:15;24.90;;;12.82;;
49223;SDS011;35050;51.316;5.994;2022-12-11T02:46:45;25.88;;;13.73;;
49223;SDS011;35050;51.316;5.994;2022-12-11T02:49:11;27.10;;;14.52;;
49223;SDS011;35050;51.316;5.994;2022-12-11T02:51:39;29.65;;;15.27;;
49223;SDS011;35050;51.316;5.994;2022-12-11T02:54:07;28.92;;;14.75;;
49223;SDS011;35050;51.316;5.994;2022-12-11T02:56:42;32.15;;;16.83;;
49223;SDS011;35050;51.316;5.994;2022-12-11T02:59:13;36.47;;;18.48;;
49223;SDS011;35050;51.316;5.994;2022-12-11T03:01:42;36.58;;;18.65;;
49223;SDS011;35050;51.316;5.994;2022-12-11T03:04:08;28.75;;;15.38;;
49223;SDS011;35050;51.316;5.994;2022-12-11T03:06:41;29.02;;;15.18;;
49223;SDS011;35050;51.316;5.994;2022-12-11T03:09:11;31.70;;;15.57;;
49223;SDS011;35050;51.316;5.994;2022-12-11T03:11:37;27.55;;;15.55;;
49223;SDS011;35050;51.316;5.994;2022-12-11T03:14:02;29.58;;;14.95;;
49223;SDS011;35050;51.316;5.994;2022-12-11T03:16:33;25.67;;;14.82;;
49223;SDS011;35050;51.316;5.994;2022-12-11T03:19:05;26.60;;;15.07;;
49223;SDS011;35050;51.316;5.994;2022-12-11T03:24:09;25.90;;;13.48;;
49223;SDS011;35050;51.316;5.994;2022-12-11T03:26:38;27.30;;;14.27;;
49223;SDS011;35050;51.316;5.994;2022-12-11T03:29:21;22.83;;;12.38;;
49223;SDS011;35050;51.316;5.994;2022-12-11T03:32:02;25.83;;;13.07;;
49223;SDS011;35050;51.316;5.994;2022-12-11T03:37:02;23.27;;;12.43;;
49223;SDS011;35050;51.316;5.994;2022-12-11T03:39:30;24.90;;;12.88;;
49223;SDS011;35050;51.316;5.994;2022-12-11T03:42:00;19.25;;;11.35;;
49223;SDS011;35050;51.316;5.994;2022-12-11T03:44:30;22.77;;;11.63;;
49223;SDS011;35050;51.316;5.994;2022-12-11T03:46:57;24.40;;;13.40;;
49223;SDS011;35050;51.316;5.994;2022-12-11T03:49:26;24.35;;;12.88;;
49223;SDS011;35050;51.316;5.994;2022-12-11T03:51:55;24.35;;;13.27;;
49223;SDS011;35050;51.316;5.994;2022-12-11T03:54:23;25.98;;;14.25;;
49223;SDS011;35050;51.316;5.994;2022-12-11T03:56:50;28.10;;;14.35;;
49223;SDS011;35050;51.316;5.994;2022-12-11T03:59:19;25.35;;;13.68;;
49223;SDS011;35050;51.316;5.994;2022-12-11T04:01:45;24.00;;;12.85;;
49223;SDS011;35050;51.316;5.994;2022-12-11T04:04:10;21.75;;;12.27;;
49223;SDS011;35050;51.316;5.994;2022-12-11T04:06:36;23.05;;;12.80;;
49223;SDS011;35050;51.316;5.994;2022-12-11T04:09:02;20.95;;;11.82;;
49223;SDS011;35050;51.316;5.994;2022-12-11T04:11:27;21.05;;;10.90;;
49223;SDS011;35050;51.316;5.994;2022-12-11T04:13:59;19.13;;;10.60;;
49223;SDS011;35050;51.316;5.994;2022-12-11T04:16:48;19.90;;;11.30;;
49223;SDS011;35050;51.316;5.994;2022-12-11T04:19:14;29.58;;;15.68;;
49223;SDS011;35050;51.316;5.994;2022-12-11T04:21:58;25.02;;;12.98;;
49223;SDS011;35050;51.316;5.994;2022-12-11T04:24:42;20.13;;;12.32;;
49223;SDS011;35050;51.316;5.994;2022-12-11T04:27:08;21.20;;;11.32;;
49223;SDS011;35050;51.316;5.994;2022-12-11T04:29:33;24.67;;;13.15;;
49223;SDS011;35050;51.316;5.994;2022-12-11T04:31:59;25.60;;;13.43;;
49223;SDS011;35050;51.316;5.994;2022-12-11T04:34:25;26.00;;;14.68;;
49223;SDS011;35050;51.316;5.994;2022-12-11T04:36:50;28.88;;;15.15;;
49223;SDS011;35050;51.316;5.994;2022-12-11T04:39:16;26.05;;;15.05;;
49223;SDS011;35050;51.316;5.994;2022-12-11T04:41:42;26.08;;;14.95;;
49223;SDS011;35050;51.316;5.994;2022-12-11T04:44:07;25.95;;;15.40;;
49223;SDS011;35050;51.316;5.994;2022-12-11T04:46:33;25.83;;;13.40;;
49223;SDS011;35050;51.316;5.994;2022-12-11T04:48:59;22.08;;;12.73;;
49223;SDS011;35050;51.316;5.994;2022-12-11T04:51:26;20.60;;;11.07;;
49223;SDS011;35050;51.316;5.994;2022-12-11T04:53:52;19.77;;;10.80;;
49223;SDS011;35050;51.316;5.994;2022-12-11T04:56:18;16.08;;;9.25;;
49223;SDS011;35050;51.316;5.994;2022-12-11T04:58:44;18.70;;;10.10;;
49223;SDS011;35050;51.316;5.994;2022-12-11T05:01:14;19.73;;;10.95;;
49223;SDS011;35050;51.316;5.994;2022-12-11T05:03:41;21.33;;;12.07;;
49223;SDS011;35050;51.316;5.994;2022-12-11T05:06:07;23.52;;;11.63;;
49223;SDS011;35050;51.316;5.994;2022-12-11T05:08:34;22.70;;;11.60;;
49223;SDS011;35050;51.316;5.994;2022-12-11T05:11:02;21.70;;;12.18;;
49223;SDS011;35050;51.316;5.994;2022-12-11T05:13:31;18.00;;;10.60;;
49223;SDS011;35050;51.316;5.994;2022-12-11T05:15:57;17.02;;;10.00;;
49223;SDS011;35050;51.316;5.994;2022-12-11T05:18:22;18.02;;;10.23;;
49223;SDS011;35050;51.316;5.994;2022-12-11T05:20:55;16.55;;;9.50;;
49223;SDS011;35050;51.316;5.994;2022-12-11T05:25:54;13.65;;;8.02;;
49223;SDS011;35050;51.316;5.994;2022-12-11T05:28:22;13.95;;;8.20;;
49223;SDS011;35050;51.316;5.994;2022-12-11T05:30:53;15.23;;;8.05;;
49223;SDS011;35050;51.316;5.994;2022-12-11T05:33:23;16.08;;;8.73;;
49223;SDS011;35050;51.316;5.994;2022-12-11T05:35:49;14.73;;;8.27;;
49223;SDS011;35050;51.316;5.994;2022-12-11T05:38:15;14.85;;;9.00;;
49223;SDS011;35050;51.316;5.994;2022-12-11T05:40:40;14.57;;;8.02;;
49223;SDS011;35050;51.316;5.994;2022-12-11T05:43:06;12.10;;;8.25;;
49223;SDS011;35050;51.316;5.994;2022-12-11T05:45:32;12.82;;;7.68;;
49223;SDS011;35050;51.316;5.994;2022-12-11T05:47:58;13.45;;;7.72;;
49223;SDS011;35050;51.316;5.994;2022-12-11T05:50:24;14.90;;;8.15;;
49223;SDS011;35050;51.316;5.994;2022-12-11T05:52:50;13.10;;;6.90;;
49223;SDS011;35050;51.316;5.994;2022-12-11T05:55:15;14.93;;;8.23;;
49223;SDS011;35050;51.316;5.994;2022-12-11T05:57:41;15.20;;;8.20;;
49223;SDS011;35050;51.316;5.994;2022-12-11T06:00:07;12.85;;;7.72;;
49223;SDS011;35050;51.316;5.994;2022-12-11T06:02:34;12.70;;;8.00;;
49223;SDS011;35050;51.316;5.994;2022-12-11T06:04:59;12.32;;;7.53;;
49223;SDS011;35050;51.316;5.994;2022-12-11T06:07:25;14.10;;;8.02;;
49223;SDS011;35050;51.316;5.994;2022-12-11T06:09:51;12.90;;;7.65;;
49223;SDS011;35050;51.316;5.994;2022-12-11T06:12:16;11.82;;;7.13;;
49223;SDS011;35050;51.316;5.994;2022-12-11T06:14:42;12.95;;;7.65;;
49223;SDS011;35050;51.316;5.994;2022-12-11T06:17:08;13.00;;;7.80;;
49223;SDS011;35050;51.316;5.994;2022-12-11T06:19:33;10.38;;;6.78;;
49223;SDS011;35050;51.316;5.994;2022-12-11T06:21:59;13.57;;;8.07;;
49223;SDS011;35050;51.316;5.994;2022-12-11T06:24:25;14.27;;;8.45;;
49223;SDS011;35050;51.316;5.994;2022-12-11T06:26:50;13.30;;;7.95;;
49223;SDS011;35050;51.316;5.994;2022-12-11T06:29:16;17.13;;;9.38;;
49223;SDS011;35050;51.316;5.994;2022-12-11T06:31:42;16.77;;;9.80;;
49223;SDS011;35050;51.316;5.994;2022-12-11T06:34:08;17.85;;;10.52;;
49223;SDS011;35050;51.316;5.994;2022-12-11T06:36:35;15.63;;;9.82;;
49223;SDS011;35050;51.316;5.994;2022-12-11T06:39:00;14.98;;;8.60;;
49223;SDS011;35050;51.316;5.994;2022-12-11T06:41:26;15.38;;;8.88;;
49223;SDS011;35050;51.316;5.994;2022-12-11T06:43:52;16.70;;;9.70;;
49223;SDS011;35050;51.316;5.994;2022-12-11T06:46:18;17.05;;;9.25;;
49223;SDS011;35050;51.316;5.994;2022-12-11T06:48:44;13.50;;;8.43;;
49223;SDS011;35050;51.316;5.994;2022-12-11T06:51:12;17.10;;;9.50;;
49223;SDS011;35050;51.316;5.994;2022-12-11T06:53:39;16.83;;;10.50;;
49223;SDS011;35050;51.316;5.994;2022-12-11T06:56:07;16.88;;;9.77;;
49223;SDS011;35050;51.316;5.994;2022-12-11T06:58:35;16.48;;;9.57;;
49223;SDS011;35050;51.316;5.994;2022-12-11T07:01:02;14.70;;;9.00;;
49223;SDS011;35050;51.316;5.994;2022-12-11T07:03:28;17.17;;;8.82;;
49223;SDS011;35050;51.316;5.994;2022-12-11T07:05:58;15.63;;;9.75;;
49223;SDS011;35050;51.316;5.994;2022-12-11T07:08:26;19.08;;;10.23;;
49223;SDS011;35050;51.316;5.994;2022-12-11T07:10:52;19.10;;;11.00;;
49223;SDS011;35050;51.316;5.994;2022-12-11T07:13:18;14.02;;;9.25;;
49223;SDS011;35050;51.316;5.994;2022-12-11T07:15:43;17.50;;;9.68;;
49223;SDS011;35050;51.316;5.994;2022-12-11T07:18:09;15.68;;;9.18;;
49223;SDS011;35050;51.316;5.994;2022-12-11T07:20:34;13.80;;;8.48;;
49223;SDS011;35050;51.316;5.994;2022-12-11T07:23:00;12.90;;;8.23;;
49223;SDS011;35050;51.316;5.994;2022-12-11T07:25:26;14.52;;;8.52;;
49223;SDS011;35050;51.316;5.994;2022-12-11T07:27:51;12.23;;;8.30;;
49223;SDS011;35050;51.316;5.994;2022-12-11T07:30:17;14.52;;;7.90;;
49223;SDS011;35050;51.316;5.994;2022-12-11T07:32:43;12.15;;;7.38;;
49223;SDS011;35050;51.316;5.994;2022-12-11T07:35:08;14.15;;;8.55;;
49223;SDS011;35050;51.316;5.994;2022-12-11T07:37:34;11.32;;;7.43;;
49223;SDS011;35050;51.316;5.994;2022-12-11T07:40:00;12.65;;;7.80;;
49223;SDS011;35050;51.316;5.994;2022-12-11T07:42:27;12.70;;;8.30;;
49223;SDS011;35050;51.316;5.994;2022-12-11T07:44:52;12.88;;;8.38;;
49223;SDS011;35050;51.316;5.994;2022-12-11T07:47:18;17.42;;;11.00;;
49223;SDS011;35050;51.316;5.994;2022-12-11T07:49:44;16.42;;;11.10;;
49223;SDS011;35050;51.316;5.994;2022-12-11T07:52:09;18.70;;;11.50;;
49223;SDS011;35050;51.316;5.994;2022-12-11T07:54:35;17.13;;;11.43;;
49223;SDS011;35050;51.316;5.994;2022-12-11T07:57:01;16.70;;;9.88;;
49223;SDS011;35050;51.316;5.994;2022-12-11T07:59:26;15.88;;;9.93;;
49223;SDS011;35050;51.316;5.994;2022-12-11T08:01:52;15.20;;;9.90;;
49223;SDS011;35050;51.316;5.994;2022-12-11T08:04:17;13.25;;;8.25;;
49223;SDS011;35050;51.316;5.994;2022-12-11T08:06:43;16.33;;;10.10;;
49223;SDS011;35050;51.316;5.994;2022-12-11T08:09:10;13.73;;;9.07;;
49223;SDS011;35050;51.316;5.994;2022-12-11T08:11:36;14.30;;;10.30;;
49223;SDS011;35050;51.316;5.994;2022-12-11T08:14:02;13.68;;;9.00;;
49223;SDS011;35050;51.316;5.994;2022-12-11T08:16:29;12.57;;;9.02;;
49223;SDS011;35050;51.316;5.994;2022-12-11T08:18:56;16.55;;;10.60;;
49223;SDS011;35050;51.316;5.994;2022-12-11T08:21:23;14.50;;;9.95;;
49223;SDS011;35050;51.316;5.994;2022-12-11T08:23:50;15.52;;;9.90;;
49223;SDS011;35050;51.316;5.994;2022-12-11T08:26:18;14.95;;;10.13;;
49223;SDS011;35050;51.316;5.994;2022-12-11T08:28:51;15.23;;;10.00;;
49223;SDS011;35050;51.316;5.994;2022-12-11T08:31:17;16.02;;;10.02;;
49223;SDS011;35050;51.316;5.994;2022-12-11T08:33:44;13.20;;;9.55;;
49223;SDS011;35050;51.316;5.994;2022-12-11T08:36:12;14.85;;;8.65;;
49223;SDS011;35050;51.316;5.994;2022-12-11T08:38:39;12.95;;;8.43;;
49223;SDS011;35050;51.316;5.994;2022-12-11T08:41:24;11.70;;;8.10;;
49223;SDS011;35050;51.316;5.994;2022-12-11T08:43:51;13.23;;;8.95;;
49223;SDS011;35050;51.316;5.994;2022-12-11T08:46:19;13.88;;;8.75;;
49223;SDS011;35050;51.316;5.994;2022-12-11T08:48:46;14.40;;;9.40;;
49223;SDS011;35050;51.316;5.994;2022-12-11T08:51:13;15.35;;;10.02;;
49223;SDS011;35050;51.316;5.994;2022-12-11T08:53:41;16.77;;;10.27;;
49223;SDS011;35050;51.316;5.994;2022-12-11T08:56:09;14.05;;;8.45;;
49223;SDS011;35050;51.316;5.994;2022-12-11T08:58:37;15.07;;;8.98;;
49223;SDS011;35050;51.316;5.994;2022-12-11T09:01:06;12.15;;;7.95;;
49223;SDS011;35050;51.316;5.994;2022-12-11T09:03:37;13.80;;;7.55;;
49223;SDS011;35050;51.316;5.994;2022-12-11T09:06:07;13.32;;;7.97;;
49223;SDS011;35050;51.316;5.994;2022-12-11T09:08:38;11.27;;;7.30;;
49223;SDS011;35050;51.316;5.994;2022-12-11T09:11:04;13.98;;;7.50;;
49223;SDS011;35050;51.316;5.994;2022-12-11T09:13:32;10.55;;;7.07;;
49223;SDS011;35050;51.316;5.994;2022-12-11T09:15:57;10.32;;;6.20;;
49223;SDS011;35050;51.316;5.994;2022-12-11T09:18:23;13.10;;;6.65;;
49223;SDS011;35050;51.316;5.994;2022-12-11T09:20:56;12.05;;;6.35;;
49223;SDS011;35050;51.316;5.994;2022-12-11T09:23:23;10.57;;;6.10;;
49223;SDS011;35050;51.316;5.994;2022-12-11T09:25:49;12.73;;;7.30;;
49223;SDS011;35050;51.316;5.994;2022-12-11T09:28:15;12.45;;;6.85;;
49223;SDS011;35050;51.316;5.994;2022-12-11T09:30:41;14.10;;;8.60;;
49223;SDS011;35050;51.316;5.994;2022-12-11T09:33:06;14.23;;;8.68;;
49223;SDS011;35050;51.316;5.994;2022-12-11T09:35:32;13.93;;;8.40;;
49223;SDS011;35050;51.316;5.994;2022-12-11T09:37:58;13.50;;;8.57;;
49223;SDS011;35050;51.316;5.994;2022-12-11T09:40:23;12.07;;;7.32;;
49223;SDS011;35050;51.316;5.994;2022-12-11T09:42:51;14.70;;;8.85;;
49223;SDS011;35050;51.316;5.994;2022-12-11T09:45:19;13.48;;;8.23;;
49223;SDS011;35050;51.316;5.994;2022-12-11T09:47:46;13.75;;;8.50;;
49223;SDS011;35050;51.316;5.994;2022-12-11T09:50:20;13.27;;;7.82;;
49223;SDS011;35050;51.316;5.994;2022-12-11T09:52:53;11.80;;;7.95;;
49223;SDS011;35050;51.316;5.994;2022-12-11T09:55:24;15.50;;;8.35;;
49223;SDS011;35050;51.316;5.994;2022-12-11T10:01:36;10.43;;;6.50;;
49223;SDS011;35050;51.316;5.994;2022-12-11T10:09:50;12.47;;;7.93;;
49223;SDS011;35050;51.316;5.994;2022-12-11T10:12:43;13.23;;;8.45;;
49223;SDS011;35050;51.316;5.994;2022-12-11T10:15:49;13.32;;;8.73;;
49223;SDS011;35050;51.316;5.994;2022-12-11T10:18:24;13.80;;;8.30;;
49223;SDS011;35050;51.316;5.994;2022-12-11T10:20:53;15.27;;;9.65;;
49223;SDS011;35050;51.316;5.994;2022-12-11T10:23:22;12.88;;;8.52;;
49223;SDS011;35050;51.316;5.994;2022-12-11T10:25:53;13.55;;;8.15;;
49223;SDS011;35050;51.316;5.994;2022-12-11T10:28:26;15.57;;;9.25;;
49223;SDS011;35050;51.316;5.994;2022-12-11T10:30:56;19.00;;;10.38;;
49223;SDS011;35050;51.316;5.994;2022-12-11T10:35:59;16.35;;;10.85;;
49223;SDS011;35050;51.316;5.994;2022-12-11T10:38:37;18.13;;;10.65;;
49223;SDS011;35050;51.316;5.994;2022-12-11T10:41:16;16.20;;;11.23;;
49223;SDS011;35050;51.316;5.994;2022-12-11T10:43:45;15.27;;;10.50;;
49223;SDS011;35050;51.316;5.994;2022-12-11T10:46:14;15.98;;;11.27;;
49223;SDS011;35050;51.316;5.994;2022-12-11T10:48:49;16.42;;;11.07;;
49223;SDS011;35050;51.316;5.994;2022-12-11T10:51:17;17.90;;;12.23;;
49223;SDS011;35050;51.316;5.994;2022-12-11T10:53:42;16.88;;;11.15;;
49223;SDS011;35050;51.316;5.994;2022-12-11T10:56:13;16.80;;;11.57;;
49223;SDS011;35050;51.316;5.994;2022-12-11T10:58:39;15.40;;;10.07;;
49223;SDS011;35050;51.316;5.994;2022-12-11T11:01:14;13.25;;;9.35;;
49223;SDS011;35050;51.316;5.994;2022-12-11T11:04:02;12.40;;;8.35;;
49223;SDS011;35050;51.316;5.994;2022-12-11T11:06:40;14.15;;;9.27;;
49223;SDS011;35050;51.316;5.994;2022-12-11T11:09:21;13.75;;;8.65;;
49223;SDS011;35050;51.316;5.994;2022-12-11T11:11:55;16.05;;;11.15;;
49223;SDS011;35050;51.316;5.994;2022-12-11T11:14:21;17.58;;;12.02;;
49223;SDS011;35050;51.316;5.994;2022-12-11T11:16:48;19.95;;;12.20;;
49223;SDS011;35050;51.316;5.994;2022-12-11T11:19:20;19.48;;;12.57;;
49223;SDS011;35050;51.316;5.994;2022-12-11T11:21:50;16.52;;;11.70;;
49223;SDS011;35050;51.316;5.994;2022-12-11T11:24:29;21.40;;;12.97;;
49223;SDS011;35050;51.316;5.994;2022-12-11T11:26:57;23.40;;;12.95;;
49223;SDS011;35050;51.316;5.994;2022-12-11T11:29:30;23.00;;;14.30;;
49223;SDS011;35050;51.316;5.994;2022-12-11T11:32:11;20.55;;;13.13;;
49223;SDS011;35050;51.316;5.994;2022-12-11T11:34:41;17.10;;;12.13;;
49223;SDS011;35050;51.316;5.994;2022-12-11T11:37:24;15.52;;;10.65;;
49223;SDS011;35050;51.316;5.994;2022-12-11T11:40:01;14.75;;;9.70;;
49223;SDS011;35050;51.316;5.994;2022-12-11T11:45:21;15.85;;;10.10;;
49223;SDS011;35050;51.316;5.994;2022-12-11T11:51:00;15.55;;;10.60;;
49223;SDS011;35050;51.316;5.994;2022-12-11T11:53:38;15.25;;;10.50;;
49223;SDS011;35050;51.316;5.994;2022-12-11T11:58:50;19.02;;;13.07;;
49223;SDS011;35050;51.316;5.994;2022-12-11T12:01:35;18.77;;;12.43;;
49223;SDS011;35050;51.316;5.994;2022-12-11T12:04:01;14.27;;;10.02;;
49223;SDS011;35050;51.316;5.994;2022-12-11T12:12:22;17.13;;;10.38;;
49223;SDS011;35050;51.316;5.994;2022-12-11T12:20:43;17.17;;;11.50;;
49223;SDS011;35050;51.316;5.994;2022-12-11T12:25:59;14.25;;;9.60;;
49223;SDS011;35050;51.316;5.994;2022-12-11T12:31:23;11.52;;;7.95;;
49223;SDS011;35050;51.316;5.994;2022-12-11T12:33:57;15.88;;;10.07;;
49223;SDS011;35050;51.316;5.994;2022-12-11T12:45:13;16.15;;;11.00;;
49223;SDS011;35050;51.316;5.994;2022-12-11T12:47:41;18.05;;;11.75;;
49223;SDS011;35050;51.316;5.994;2022-12-11T12:50:16;14.57;;;9.82;;
49223;SDS011;35050;51.316;5.994;2022-12-11T12:52:44;15.10;;;9.48;;
49223;SDS011;35050;51.316;5.994;2022-12-11T12:57:48;13.68;;;9.65;;
49223;SDS011;35050;51.316;5.994;2022-12-11T13:00:35;15.27;;;10.27;;
49223;SDS011;35050;51.316;5.994;2022-12-11T13:05:44;13.40;;;8.80;;
49223;SDS011;35050;51.316;5.994;2022-12-11T13:08:40;11.85;;;8.25;;
49223;SDS011;35050;51.316;5.994;2022-12-11T13:11:14;12.88;;;8.65;;
49223;SDS011;35050;51.316;5.994;2022-12-11T13:18:47;10.85;;;7.47;;
49223;SDS011;35050;51.316;5.994;2022-12-11T13:23:53;10.00;;;6.72;;
49223;SDS011;35050;51.316;5.994;2022-12-11T13:26:30;10.60;;;7.20;;
49223;SDS011;35050;51.316;5.994;2022-12-11T13:28:57;9.63;;;6.22;;
49223;SDS011;35050;51.316;5.994;2022-12-11T13:31:28;11.77;;;8.43;;
49223;SDS011;35050;51.316;5.994;2022-12-11T13:34:06;11.65;;;7.97;;
49223;SDS011;35050;51.316;5.994;2022-12-11T13:36:46;10.98;;;6.75;;
49223;SDS011;35050;51.316;5.994;2022-12-11T13:39:33;10.20;;;6.80;;
49223;SDS011;35050;51.316;5.994;2022-12-11T13:42:03;10.55;;;7.80;;
49223;SDS011;35050;51.316;5.994;2022-12-11T13:44:32;13.10;;;7.93;;
49223;SDS011;35050;51.316;5.994;2022-12-11T13:47:05;10.05;;;7.32;;
49223;SDS011;35050;51.316;5.994;2022-12-11T13:49:36;10.18;;;7.07;;
49223;SDS011;35050;51.316;5.994;2022-12-11T13:52:05;10.38;;;6.80;;
49223;SDS011;35050;51.316;5.994;2022-12-11T13:54:33;11.63;;;7.95;;
49223;SDS011;35050;51.316;5.994;2022-12-11T13:59:32;12.20;;;8.30;;
49223;SDS011;35050;51.316;5.994;2022-12-11T14:02:03;12.30;;;8.18;;
49223;SDS011;35050;51.316;5.994;2022-12-11T14:04:44;10.07;;;7.22;;
49223;SDS011;35050;51.316;5.994;2022-12-11T14:07:14;13.20;;;8.82;;
49223;SDS011;35050;51.316;5.994;2022-12-11T14:09:44;12.63;;;8.38;;
49223;SDS011;35050;51.316;5.994;2022-12-11T14:12:17;10.82;;;8.05;;
49223;SDS011;35050;51.316;5.994;2022-12-11T14:14:49;12.65;;;8.13;;
49223;SDS011;35050;51.316;5.994;2022-12-11T14:17:25;12.60;;;7.72;;
49223;SDS011;35050;51.316;5.994;2022-12-11T14:19:55;13.52;;;8.93;;
49223;SDS011;35050;51.316;5.994;2022-12-11T14:22:24;10.80;;;7.63;;
49223;SDS011;35050;51.316;5.994;2022-12-11T14:24:56;12.10;;;8.02;;
49223;SDS011;35050;51.316;5.994;2022-12-11T14:27:22;11.07;;;7.75;;
49223;SDS011;35050;51.316;5.994;2022-12-11T14:29:49;9.18;;;7.18;;
49223;SDS011;35050;51.316;5.994;2022-12-11T14:32:28;11.82;;;7.47;;
49223;SDS011;35050;51.316;5.994;2022-12-11T14:35:07;8.80;;;6.38;;
49223;SDS011;35050;51.316;5.994;2022-12-11T14:37:52;12.02;;;7.18;;
49223;SDS011;35050;51.316;5.994;2022-12-11T14:40:19;12.18;;;7.90;;
49223;SDS011;35050;51.316;5.994;2022-12-11T14:42:51;12.27;;;8.43;;
49223;SDS011;35050;51.316;5.994;2022-12-11T14:45:55;11.32;;;8.23;;
49223;SDS011;35050;51.316;5.994;2022-12-11T14:48:18;12.85;;;8.45;;
49223;SDS011;35050;51.316;5.994;2022-12-11T14:50:54;13.48;;;8.45;;
49223;SDS011;35050;51.316;5.994;2022-12-11T14:55:52;12.70;;;8.10;;
49223;SDS011;35050;51.316;5.994;2022-12-11T14:58:23;12.77;;;8.43;;
49223;SDS011;35050;51.316;5.994;2022-12-11T15:01:03;15.38;;;10.55;;
49223;SDS011;35050;51.316;5.994;2022-12-11T15:03:32;13.80;;;9.50;;
49223;SDS011;35050;51.316;5.994;2022-12-11T15:05:59;15.07;;;10.23;;
49223;SDS011;35050;51.316;5.994;2022-12-11T15:08:27;15.93;;;10.48;;
49223;SDS011;35050;51.316;5.994;2022-12-11T15:11:03;15.77;;;9.73;;
49223;SDS011;35050;51.316;5.994;2022-12-11T15:13:29;15.57;;;10.85;;
49223;SDS011;35050;51.316;5.994;2022-12-11T15:15:56;18.77;;;10.73;;
49223;SDS011;35050;51.316;5.994;2022-12-11T15:18:31;15.75;;;9.63;;
49223;SDS011;35050;51.316;5.994;2022-12-11T15:21:01;15.43;;;9.40;;
49223;SDS011;35050;51.316;5.994;2022-12-11T15:23:31;12.02;;;8.20;;
49223;SDS011;35050;51.316;5.994;2022-12-11T15:26:01;12.30;;;8.55;;
49223;SDS011;35050;51.316;5.994;2022-12-11T15:28:29;13.48;;;9.27;;
49223;SDS011;35050;51.316;5.994;2022-12-11T15:31:01;13.10;;;8.10;;
49223;SDS011;35050;51.316;5.994;2022-12-11T15:33:28;11.95;;;8.00;;
49223;SDS011;35050;51.316;5.994;2022-12-11T15:36:02;13.13;;;8.32;;
49223;SDS011;35050;51.316;5.994;2022-12-11T15:38:31;11.23;;;7.78;;
49223;SDS011;35050;51.316;5.994;2022-12-11T15:43:30;13.02;;;8.77;;
49223;SDS011;35050;51.316;5.994;2022-12-11T15:46:00;13.48;;;8.88;;
49223;SDS011;35050;51.316;5.994;2022-12-11T15:48:26;13.82;;;9.65;;
49223;SDS011;35050;51.316;5.994;2022-12-11T15:50:53;13.73;;;9.77;;
49223;SDS011;35050;51.316;5.994;2022-12-11T15:53:19;12.95;;;8.85;;
49223;SDS011;35050;51.316;5.994;2022-12-11T15:55:44;12.05;;;8.02;;
49223;SDS011;35050;51.316;5.994;2022-12-11T15:58:14;14.10;;;9.07;;
49223;SDS011;35050;51.316;5.994;2022-12-11T16:00:43;14.32;;;9.05;;
49223;SDS011;35050;51.316;5.994;2022-12-11T16:03:10;12.40;;;8.07;;